createdAt,value
2023-01-09T00:00:54.125Z,89.73
2023-01-09T00:03:21.588Z,89.86
2023-01-09T00:05:48.103Z,90.28
2023-01-09T00:08:15.040Z,89.73
2023-01-09T00:10:41.868Z,90.39
2023-01-09T00:13:11.760Z,90.86
2023-01-09T00:15:39.822Z,91.14
2023-01-09T00:18:06.867Z,91.44
2023-01-09T00:20:33.528Z,90.64
2023-01-09T00:23:00.097Z,90.56
2023-01-09T00:25:26.567Z,90.74
2023-01-09T00:27:53.156Z,90.43
2023-01-09T00:30:19.893Z,90.20
2023-01-09T00:32:46.439Z,90.14
2023-01-09T00:35:17.032Z,89.61
2023-01-09T00:37:43.758Z,89.83
2023-01-09T00:40:13.491Z,90.11
2023-01-09T00:42:45.638Z,90.36
2023-01-09T00:45:18.638Z,89.56
2023-01-09T00:47:50.073Z,89.27
2023-01-09T00:50:23.566Z,88.50
2023-01-09T00:52:52.927Z,88.72
2023-01-09T00:55:19.690Z,88.77
2023-01-09T00:57:47.142Z,88.07
2023-01-09T01:00:14.102Z,88.18
2023-01-09T01:02:40.806Z,88.19
2023-01-09T01:05:26.223Z,87.98
2023-01-09T01:07:52.921Z,87.81
2023-01-09T01:10:23.788Z,88.30
2023-01-09T01:12:51.189Z,88.76
2023-01-09T01:15:18.895Z,88.55
2023-01-09T01:17:45.621Z,88.71
2023-01-09T01:20:15.181Z,88.50
2023-01-09T01:22:44.846Z,89.39
2023-01-09T01:25:13.590Z,89.26
2023-01-09T01:27:40.175Z,89.16
2023-01-09T01:30:11.693Z,89.08
2023-01-09T01:32:39.752Z,88.81
2023-01-09T01:35:07.609Z,88.74
2023-01-09T01:37:36.997Z,89.19
2023-01-09T01:40:06.158Z,88.81
2023-01-09T01:42:33.205Z,89.05
2023-01-09T01:45:41.285Z,89.22
2023-01-09T01:48:15.884Z,89.55
2023-01-09T01:50:51.866Z,89.25
2023-01-09T01:53:29.771Z,88.80
2023-01-09T01:56:05.404Z,89.26
2023-01-09T01:58:36.418Z,88.62
2023-01-09T02:01:04.016Z,88.69
2023-01-09T02:03:30.918Z,88.96
2023-01-09T02:05:57.454Z,88.74
2023-01-09T02:08:24.067Z,89.07
2023-01-09T02:10:52.073Z,88.73
2023-01-09T02:13:19.517Z,88.42
2023-01-09T02:16:04.396Z,87.85
2023-01-09T02:18:41.813Z,87.41
2023-01-09T02:21:19.395Z,86.90
2023-01-09T02:24:20.450Z,87.08
2023-01-09T02:27:13.436Z,86.17
2023-01-09T02:30:14.424Z,85.84
2023-01-09T02:33:03.385Z,86.07
2023-01-09T02:35:57.197Z,85.74
2023-01-09T02:38:40.077Z,84.92
2023-01-09T02:41:14.907Z,85.92
2023-01-09T02:43:43.079Z,85.42
2023-01-09T02:46:20.046Z,85.06
2023-01-09T02:48:52.329Z,84.50
2023-01-09T02:51:29.036Z,84.48
2023-01-09T02:54:15.510Z,84.46
2023-01-09T02:57:07.344Z,84.72
2023-01-09T02:59:48.929Z,85.16
2023-01-09T03:02:29.604Z,84.77
2023-01-09T03:05:16.395Z,84.71
2023-01-09T03:07:56.456Z,84.91
2023-01-09T03:10:40.847Z,84.15
2023-01-09T03:13:11.843Z,84.10
2023-01-09T03:15:43.077Z,84.13
2023-01-09T03:18:11.955Z,84.34
2023-01-09T03:20:39.717Z,85.12
2023-01-09T03:23:09.261Z,84.40
2023-01-09T03:25:36.086Z,84.28
2023-01-09T03:28:08.521Z,84.02
2023-01-09T03:30:36.539Z,83.69
2023-01-09T03:33:03.183Z,83.84
2023-01-09T03:35:29.983Z,83.89
2023-01-09T03:37:56.709Z,83.24
2023-01-09T03:40:24.612Z,82.28
2023-01-09T03:42:51.199Z,81.74
2023-01-09T03:45:17.738Z,82.69
2023-01-09T03:47:45.437Z,82.30
2023-01-09T03:50:12.038Z,82.08
2023-01-09T03:52:38.692Z,82.81
2023-01-09T03:55:06.238Z,82.96
2023-01-09T03:57:32.803Z,82.89
2023-01-09T03:59:59.328Z,82.96
2023-01-09T04:02:25.958Z,82.79
2023-01-09T04:04:52.755Z,83.00
2023-01-09T04:07:19.363Z,82.94
2023-01-09T04:09:46.110Z,82.21
2023-01-09T04:12:12.755Z,81.87
2023-01-09T04:14:42.403Z,81.88
2023-01-09T04:17:08.957Z,82.14
2023-01-09T04:19:35.626Z,81.85
2023-01-09T04:22:02.213Z,82.05
2023-01-09T04:24:28.875Z,81.55
2023-01-09T04:26:56.089Z,80.90
2023-01-09T04:29:22.720Z,80.74
2023-01-09T04:31:49.337Z,81.08
2023-01-09T04:34:15.885Z,80.62
2023-01-09T04:36:43.205Z,80.31
2023-01-09T04:39:09.984Z,80.16
2023-01-09T04:41:51.818Z,79.79
2023-01-09T04:44:26.232Z,79.21
2023-01-09T04:46:54.108Z,78.10
2023-01-09T04:49:21.063Z,79.00
2023-01-09T04:51:48.067Z,78.53
2023-01-09T04:54:15.689Z,78.54
2023-01-09T04:56:42.245Z,78.96
2023-01-09T04:59:09.108Z,79.34
2023-01-09T05:01:37.188Z,78.38
2023-01-09T05:04:04.239Z,79.13
2023-01-09T05:06:31.737Z,78.82
2023-01-09T05:08:58.773Z,77.55
2023-01-09T05:11:25.664Z,76.85
2023-01-09T05:13:53.198Z,77.38
2023-01-09T05:16:20.805Z,77.42
2023-01-09T05:18:49.951Z,76.67
2023-01-09T05:21:16.666Z,76.46
2023-01-09T05:23:44.631Z,76.75
2023-01-09T05:26:11.183Z,76.57
2023-01-09T05:28:38.074Z,76.43
2023-01-09T05:31:05.108Z,76.91
2023-01-09T05:33:31.588Z,77.34
2023-01-09T05:35:58.223Z,77.00
2023-01-09T05:38:27.403Z,77.45
2023-01-09T05:40:54.469Z,78.23
2023-01-09T05:43:21.219Z,78.58
2023-01-09T05:45:47.981Z,79.10
2023-01-09T05:48:14.463Z,78.80
2023-01-09T05:50:41.050Z,79.26
2023-01-09T05:53:07.986Z,79.42
2023-01-09T05:55:34.543Z,78.92
2023-01-09T05:58:01.087Z,79.48
2023-01-09T06:00:27.724Z,80.11
2023-01-09T06:02:54.248Z,80.85
2023-01-09T06:05:20.890Z,80.55
2023-01-09T06:07:47.876Z,80.86
2023-01-09T06:10:15.617Z,81.15
2023-01-09T06:12:47.122Z,80.81
2023-01-09T06:15:15.532Z,80.56
2023-01-09T06:17:43.343Z,80.71
2023-01-09T06:20:11.919Z,81.21
2023-01-09T06:22:38.789Z,82.42
2023-01-09T06:25:06.587Z,82.98
2023-01-09T06:27:33.120Z,83.38
2023-01-09T06:29:59.932Z,83.24
2023-01-09T06:32:26.558Z,82.74
2023-01-09T06:34:53.174Z,82.96
2023-01-09T06:37:19.934Z,83.29
2023-01-09T06:39:47.158Z,83.00
2023-01-09T06:42:14.763Z,82.89
2023-01-09T06:44:41.226Z,82.21
2023-01-09T06:47:08.198Z,82.60
2023-01-09T06:49:34.799Z,82.71
2023-01-09T06:52:05.798Z,82.62
2023-01-09T06:54:32.371Z,82.71
2023-01-09T06:56:59.223Z,82.87
2023-01-09T06:59:26.105Z,82.20
2023-01-09T07:01:53.451Z,81.83
2023-01-09T07:04:22.016Z,82.66
2023-01-09T07:06:49.829Z,83.34
2023-01-09T07:09:16.399Z,83.37
2023-01-09T07:11:42.956Z,83.37
2023-01-09T07:14:09.827Z,83.35
2023-01-09T07:16:36.467Z,83.79
2023-01-09T07:19:03.246Z,84.07
2023-01-09T07:21:32.580Z,84.27
2023-01-09T07:23:59.302Z,83.85
2023-01-09T07:26:25.981Z,84.37
2023-01-09T07:28:52.780Z,84.62
2023-01-09T07:31:19.661Z,84.52
2023-01-09T07:33:47.176Z,84.42
2023-01-09T07:36:13.933Z,84.93
2023-01-09T07:38:40.543Z,86.14
2023-01-09T07:41:07.081Z,86.80
2023-01-09T07:43:34.037Z,86.36
2023-01-09T07:46:00.730Z,86.77
2023-01-09T07:48:28.012Z,86.76
2023-01-09T07:50:54.803Z,86.41
2023-01-09T07:53:22.215Z,86.91
2023-01-09T07:55:48.887Z,87.00
2023-01-09T07:58:15.676Z,86.39
2023-01-09T08:00:42.435Z,86.67
2023-01-09T08:03:09.527Z,86.53
2023-01-09T08:05:36.492Z,86.87
2023-01-09T08:08:03.299Z,86.04
2023-01-09T08:10:30.046Z,85.94
2023-01-09T08:12:58.961Z,85.82
2023-01-09T08:15:25.480Z,85.56
2023-01-09T08:17:51.987Z,85.75
2023-01-09T08:20:18.778Z,85.14
2023-01-09T08:22:50.850Z,85.47
2023-01-09T08:25:18.015Z,85.26
2023-01-09T08:27:44.794Z,86.12
2023-01-09T08:30:15.767Z,85.98
2023-01-09T08:32:43.354Z,85.97
2023-01-09T08:35:10.907Z,85.90
2023-01-09T08:37:37.708Z,85.46
2023-01-09T08:40:04.913Z,84.90
2023-01-09T08:42:50.538Z,84.45
2023-01-09T08:45:35.912Z,84.81
2023-01-09T08:48:02.430Z,84.93
2023-01-09T08:50:29.161Z,84.53
2023-01-09T08:52:55.668Z,84.04
2023-01-09T08:55:22.442Z,83.91
2023-01-09T08:57:50.408Z,84.78
2023-01-09T09:00:18.986Z,84.67
2023-01-09T09:02:45.690Z,83.97
2023-01-09T09:05:12.421Z,84.33
2023-01-09T09:07:42.170Z,84.73
2023-01-09T09:10:10.281Z,85.38
2023-01-09T09:12:37.968Z,85.52
2023-01-09T09:15:13.703Z,84.18
2023-01-09T09:17:40.777Z,84.53
2023-01-09T09:20:10.209Z,84.64
2023-01-09T09:22:41.963Z,85.05
2023-01-09T09:25:08.750Z,84.83
2023-01-09T09:27:36.632Z,84.43
2023-01-09T09:30:05.787Z,83.57
2023-01-09T09:32:32.667Z,83.97
2023-01-09T09:34:59.375Z,83.61
2023-01-09T09:37:26.203Z,82.96
2023-01-09T09:39:52.735Z,83.56
2023-01-09T09:42:57.060Z,82.84
2023-01-09T09:45:35.146Z,83.73
2023-01-09T09:48:20.731Z,83.16
2023-01-09T09:50:56.519Z,83.20
2023-01-09T09:53:38.660Z,83.60
2023-01-09T09:56:08.189Z,83.65
2023-01-09T09:58:38.787Z,83.04
2023-01-09T10:01:07.912Z,82.70
2023-01-09T10:03:47.705Z,83.97
2023-01-09T10:06:29.772Z,84.94
2023-01-09T10:09:29.509Z,85.09
2023-01-09T10:12:01.482Z,84.46
2023-01-09T10:14:28.283Z,85.14
2023-01-09T10:17:14.131Z,83.54
2023-01-09T10:20:24.940Z,83.17
2023-01-09T10:23:01.199Z,83.60
2023-01-09T10:25:45.932Z,82.96
2023-01-09T10:28:40.874Z,83.23
2023-01-09T10:31:25.533Z,83.19
2023-01-09T10:34:12.887Z,83.13
2023-01-09T10:36:49.156Z,83.64
2023-01-09T10:39:26.112Z,83.81
2023-01-09T10:42:07.731Z,83.95
2023-01-09T10:44:42.287Z,84.82
2023-01-09T10:47:16.921Z,84.78
2023-01-09T10:49:48.083Z,84.55
2023-01-09T10:52:20.726Z,84.15
2023-01-09T10:55:00.806Z,83.61
2023-01-09T10:57:33.976Z,83.43
2023-01-09T11:00:00.978Z,83.60
2023-01-09T11:02:34.772Z,83.58
2023-01-09T11:05:01.344Z,83.28
2023-01-09T11:07:35.860Z,82.96
2023-01-09T11:10:07.983Z,83.28
2023-01-09T11:12:36.733Z,83.04
2023-01-09T11:15:15.763Z,83.73
2023-01-09T11:17:46.752Z,83.59
2023-01-09T11:20:26.245Z,83.11
2023-01-09T11:22:55.352Z,83.08
2023-01-09T11:25:25.612Z,82.53
2023-01-09T11:28:02.390Z,83.41
2023-01-09T11:30:31.431Z,81.38
2023-01-09T11:32:59.165Z,82.23
2023-01-09T11:35:33.713Z,82.34
2023-01-09T11:38:05.589Z,81.94
2023-01-09T11:40:45.094Z,82.06
2023-01-09T11:43:14.275Z,81.84
2023-01-09T11:46:00.170Z,81.52
2023-01-09T11:48:39.146Z,81.69
2023-01-09T11:51:18.015Z,81.99
2023-01-09T11:54:10.757Z,81.29
2023-01-09T11:56:38.878Z,81.56
2023-01-09T11:59:13.571Z,81.35
2023-01-09T12:02:19.834Z,80.65
2023-01-09T12:05:04.487Z,81.49
2023-01-09T12:07:50.993Z,82.43
2023-01-09T12:10:30.914Z,82.69
2023-01-09T12:13:31.318Z,82.64
2023-01-09T12:16:22.386Z,82.08
2023-01-09T12:19:21.845Z,82.88
2023-01-09T12:22:35.313Z,82.19
2023-01-09T12:25:23.809Z,82.28
2023-01-09T12:28:15.036Z,82.34
2023-01-09T12:30:50.725Z,81.66
2023-01-09T12:33:37.282Z,81.92
2023-01-09T12:36:17.968Z,81.47
2023-01-09T12:38:49.349Z,80.87
2023-01-09T12:41:23.188Z,81.40
2023-01-09T12:44:08.805Z,80.48
2023-01-09T12:47:00.175Z,80.50
2023-01-09T12:49:38.839Z,80.01
2023-01-09T12:52:17.499Z,80.30
2023-01-09T12:54:51.739Z,80.15
2023-01-09T12:57:34.761Z,78.66
2023-01-09T13:00:21.922Z,79.37
2023-01-09T13:03:11.196Z,79.78
2023-01-09T13:05:53.422Z,79.33
2023-01-09T13:08:30.325Z,79.42
2023-01-09T13:11:01.580Z,79.14
2023-01-09T13:14:10.878Z,79.19
2023-01-09T13:16:49.988Z,78.11
2023-01-09T13:19:29.112Z,78.37
2023-01-09T13:21:59.028Z,77.14
2023-01-09T13:24:37.867Z,76.07
2023-01-09T13:27:15.674Z,76.03
2023-01-09T13:29:45.701Z,76.11
2023-01-09T13:32:37.446Z,75.73
2023-01-09T13:35:04.823Z,75.36
2023-01-09T13:37:34.981Z,75.95
2023-01-09T13:40:20.210Z,75.96
2023-01-09T13:43:04.982Z,75.45
2023-01-09T13:45:37.278Z,75.00
2023-01-09T13:48:11.237Z,75.33
2023-01-09T13:50:39.334Z,73.82
2023-01-09T13:53:18.428Z,73.63
2023-01-09T13:55:57.598Z,74.43
2023-01-09T13:58:48.891Z,74.63
2023-01-09T14:01:42.405Z,73.25
2023-01-09T14:04:17.992Z,73.90
2023-01-09T14:07:30.107Z,74.71
2023-01-09T14:10:01.265Z,73.57
2023-01-09T14:12:32.552Z,73.69
2023-01-09T14:15:02.430Z,73.70
2023-01-09T14:17:36.290Z,74.32
2023-01-09T14:20:07.318Z,74.14
2023-01-09T14:22:46.090Z,73.83
2023-01-09T14:25:26.125Z,73.93
2023-01-09T14:27:55.718Z,73.57
2023-01-09T14:30:55.165Z,72.66
2023-01-09T14:33:22.620Z,73.06
2023-01-09T14:36:16.075Z,72.49
2023-01-09T14:38:59.879Z,72.57
2023-01-09T14:42:05.851Z,71.67
2023-01-09T14:44:46.826Z,71.95
2023-01-09T14:47:31.680Z,72.36
2023-01-09T14:50:16.768Z,71.69
2023-01-09T14:53:08.497Z,72.47
2023-01-09T14:55:51.437Z,73.45
2023-01-09T14:58:21.642Z,74.04
2023-01-09T15:00:57.045Z,75.94
2023-01-09T15:03:26.870Z,76.29
2023-01-09T15:05:54.454Z,77.29
2023-01-09T15:08:26.011Z,78.34
2023-01-09T15:10:56.136Z,79.46
2023-01-09T15:13:41.434Z,78.75
2023-01-09T15:16:18.463Z,78.49
2023-01-09T15:18:48.458Z,77.93
2023-01-09T15:21:20.226Z,77.71
2023-01-09T15:23:46.915Z,77.70
2023-01-09T15:26:31.679Z,77.91
2023-01-09T15:29:10.331Z,77.82
2023-01-09T15:31:45.839Z,78.53
2023-01-09T15:34:20.131Z,78.06
2023-01-09T15:36:49.515Z,77.35
2023-01-09T15:39:28.007Z,77.68
2023-01-09T15:42:14.403Z,77.36
2023-01-09T15:44:44.003Z,77.56
2023-01-09T15:47:18.858Z,77.92
2023-01-09T15:49:46.955Z,77.83
2023-01-09T15:52:16.987Z,78.12
2023-01-09T15:54:46.627Z,77.98
2023-01-09T15:57:33.650Z,78.19
2023-01-09T16:00:23.734Z,78.12
2023-01-09T16:03:08.766Z,78.64
2023-01-09T16:05:40.886Z,78.59
2023-01-09T16:08:20.540Z,78.35
2023-01-09T16:10:56.385Z,77.87
2023-01-09T16:13:25.636Z,78.42
2023-01-09T16:15:53.257Z,79.19
2023-01-09T16:18:23.055Z,79.05
2023-01-09T16:20:49.720Z,79.04
2023-01-09T16:23:23.331Z,79.16
2023-01-09T16:25:50.043Z,79.00
2023-01-09T16:28:26.983Z,78.57
2023-01-09T16:31:09.441Z,78.63
2023-01-09T16:33:43.295Z,78.02
2023-01-09T16:36:10.906Z,77.75
2023-01-09T16:38:39.127Z,77.32
2023-01-09T16:41:26.156Z,77.55
2023-01-09T16:43:57.966Z,77.75
2023-01-09T16:46:26.557Z,77.33
2023-01-09T16:48:54.690Z,77.19
2023-01-09T16:51:23.009Z,76.91
2023-01-09T16:53:50.113Z,77.30
2023-01-09T16:56:23.450Z,76.94
2023-01-09T16:58:51.034Z,76.90
2023-01-09T17:01:18.203Z,76.63
2023-01-09T17:03:45.126Z,77.02
2023-01-09T17:06:21.138Z,76.88
2023-01-09T17:08:51.462Z,76.68
2023-01-09T17:11:24.359Z,76.79
2023-01-09T17:13:51.632Z,76.98
2023-01-09T17:16:20.375Z,76.95
2023-01-09T17:18:50.190Z,77.51
2023-01-09T17:21:22.463Z,77.58
2023-01-09T17:24:09.657Z,77.50
2023-01-09T17:26:56.435Z,77.55
2023-01-09T17:29:24.726Z,77.75
2023-01-09T17:31:52.042Z,77.69
2023-01-09T17:34:20.379Z,78.09
2023-01-09T17:36:47.046Z,77.25
2023-01-09T17:39:15.495Z,78.17
2023-01-09T17:41:42.429Z,77.67
2023-01-09T17:44:11.160Z,77.80
2023-01-09T17:46:41.316Z,78.04
2023-01-09T17:49:15.093Z,77.81
2023-01-09T17:51:41.811Z,78.21
2023-01-09T17:54:09.679Z,77.90
2023-01-09T17:56:39.276Z,77.53
2023-01-09T17:59:11.494Z,77.15
2023-01-09T18:01:39.712Z,77.18
2023-01-09T18:04:06.583Z,76.40
2023-01-09T18:06:33.198Z,77.21
2023-01-09T18:08:59.750Z,77.41
2023-01-09T18:11:26.872Z,76.95
2023-01-09T18:13:58.864Z,77.85
2023-01-09T18:16:32.517Z,77.35
2023-01-09T18:19:01.447Z,77.17
2023-01-09T18:21:31.088Z,77.99
2023-01-09T18:23:59.371Z,77.40
2023-01-09T18:26:28.621Z,77.88
2023-01-09T18:28:57.261Z,77.71
2023-01-09T18:31:25.620Z,77.21
2023-01-09T18:33:54.075Z,77.43
2023-01-09T18:36:24.317Z,76.91
2023-01-09T18:38:53.245Z,77.21
2023-01-09T18:41:20.426Z,77.47
2023-01-09T18:43:55.307Z,78.01
2023-01-09T18:46:25.515Z,77.30
2023-01-09T18:48:54.320Z,77.73
2023-01-09T18:51:22.855Z,77.65
2023-01-09T18:53:50.616Z,77.28
2023-01-09T18:56:19.333Z,77.17
2023-01-09T18:58:46.921Z,77.27
2023-01-09T19:01:15.632Z,77.01
2023-01-09T19:03:45.115Z,76.46
2023-01-09T19:06:12.616Z,76.69
2023-01-09T19:08:39.235Z,77.16
2023-01-09T19:11:06.259Z,77.43
2023-01-09T19:13:36.770Z,76.79
2023-01-09T19:16:05.674Z,77.28
2023-01-09T19:18:34.263Z,77.26
2023-01-09T19:21:00.933Z,76.84
2023-01-09T19:23:27.550Z,76.73
2023-01-09T19:25:54.748Z,76.98
2023-01-09T19:28:21.584Z,77.25
2023-01-09T19:30:55.341Z,76.62
2023-01-09T19:33:21.833Z,76.47
2023-01-09T19:35:49.572Z,76.25
2023-01-09T19:38:16.267Z,76.79
2023-01-09T19:40:43.012Z,77.07
2023-01-09T19:43:09.792Z,77.88
2023-01-09T19:45:39.081Z,77.22
2023-01-09T19:48:06.099Z,77.45
2023-01-09T19:50:32.999Z,76.75
2023-01-09T19:52:59.481Z,77.29
2023-01-09T19:55:26.033Z,77.67
2023-01-09T19:57:52.508Z,77.31
2023-01-09T20:00:19.384Z,77.09
2023-01-09T20:02:49.540Z,77.37
2023-01-09T20:05:17.365Z,77.61
2023-01-09T20:07:43.994Z,78.18
2023-01-09T20:10:11.023Z,77.73
2023-01-09T20:12:37.665Z,77.77
2023-01-09T20:15:05.065Z,77.69
2023-01-09T20:17:33.178Z,77.59
2023-01-09T20:19:59.801Z,77.22
2023-01-09T20:22:26.811Z,77.94
2023-01-09T20:24:54.359Z,77.33
2023-01-09T20:27:20.886Z,77.19
2023-01-09T20:29:48.165Z,76.64
2023-01-09T20:32:16.890Z,77.54
2023-01-09T20:34:46.645Z,77.58
2023-01-09T20:37:14.848Z,77.94
2023-01-09T20:39:41.501Z,77.80
2023-01-09T20:42:08.794Z,78.55
2023-01-09T20:44:35.462Z,78.05
2023-01-09T20:47:03.685Z,78.35
2023-01-09T20:49:30.200Z,78.67
2023-01-09T20:51:57.139Z,78.31
2023-01-09T20:54:23.898Z,78.25
2023-01-09T20:56:51.035Z,78.78
2023-01-09T20:59:22.752Z,78.51
2023-01-09T21:01:51.011Z,78.71
2023-01-09T21:04:18.601Z,78.75
2023-01-09T21:06:45.775Z,78.46
2023-01-09T21:09:14.143Z,78.20
2023-01-09T21:11:40.666Z,78.21
2023-01-09T21:14:07.525Z,77.75
2023-01-09T21:16:34.198Z,78.12
2023-01-09T21:19:00.800Z,77.74
2023-01-09T21:21:28.808Z,78.37
2023-01-09T21:23:59.028Z,77.15
2023-01-09T21:26:30.841Z,77.35
2023-01-09T21:29:02.139Z,78.21
2023-01-09T21:31:34.602Z,77.52
2023-01-09T21:34:04.652Z,76.99
2023-01-09T21:36:31.716Z,77.13
2023-01-09T21:39:07.824Z,77.22
2023-01-09T21:42:03.791Z,76.37
2023-01-09T21:44:49.236Z,77.17
2023-01-09T21:47:15.879Z,76.37
2023-01-09T21:49:44.198Z,76.62
2023-01-09T21:52:13.957Z,76.47
2023-01-09T21:54:41.970Z,76.94
2023-01-09T21:57:09.140Z,76.88
2023-01-09T21:59:35.657Z,76.06
2023-01-09T22:02:02.351Z,76.63
2023-01-09T22:04:29.207Z,76.66
2023-01-09T22:06:56.797Z,76.81
2023-01-09T22:09:23.375Z,76.01
2023-01-09T22:11:50.088Z,76.27
2023-01-09T22:14:18.029Z,76.68
2023-01-09T22:16:45.955Z,76.64
2023-01-09T22:19:16.281Z,77.17
2023-01-09T22:21:42.793Z,76.97
2023-01-09T22:24:15.600Z,76.61
2023-01-09T22:26:44.162Z,77.50
2023-01-09T22:29:12.321Z,77.52
2023-01-09T22:31:43.173Z,77.12
2023-01-09T22:34:14.042Z,77.38
2023-01-09T22:36:41.758Z,76.74
2023-01-09T22:39:13.991Z,76.72
2023-01-09T22:41:40.959Z,76.78
2023-01-09T22:44:09.582Z,77.21
2023-01-09T22:46:36.119Z,77.12
2023-01-09T22:49:05.444Z,78.08
2023-01-09T22:51:35.129Z,77.46
2023-01-09T22:54:01.948Z,77.63
2023-01-09T22:56:33.749Z,78.07
2023-01-09T22:59:01.029Z,78.59
2023-01-09T23:01:28.337Z,78.23
2023-01-09T23:03:54.865Z,78.42
2023-01-09T23:06:22.600Z,78.04
2023-01-09T23:08:51.151Z,77.87
2023-01-09T23:11:42.919Z,78.19
2023-01-09T23:14:10.571Z,77.42
2023-01-09T23:16:37.502Z,77.66
2023-01-09T23:19:09.040Z,77.72
2023-01-09T23:21:37.018Z,78.15
2023-01-09T23:24:03.925Z,77.87
2023-01-09T23:26:30.531Z,78.16
2023-01-09T23:28:56.985Z,77.98
2023-01-09T23:31:27.607Z,77.12
2023-01-09T23:33:55.157Z,76.97
2023-01-09T23:36:22.795Z,77.41
2023-01-09T23:38:49.703Z,77.13
2023-01-09T23:41:16.607Z,77.85
2023-01-09T23:43:48.770Z,78.13
2023-01-09T23:46:15.349Z,78.16
2023-01-09T23:48:41.870Z,79.11
2023-01-09T23:51:08.561Z,79.36
2023-01-09T23:53:35.155Z,79.48
2023-01-09T23:56:03.162Z,80.13
2023-01-09T23:58:30.038Z,79.91
